Terminal Aerodrome Forecast
Issued by NWS

Home | Current Version | Previous Version | Text Only | Print | Product List | Glossary On
Versions: 1 2 3 4 5 6 7 8 9 10 11 12 13 14 15 16 17 18 19 20 21 22 23 24 25 26 27 28 29 30 31 32 33 34 35 36
077
FTUS45 KBOU 220534
TAFBJC
TAF
KBJC 220534Z 2206/2306 34005KT P6SM FEW100 SCT250
     FM221200 33005KT P6SM SCT006 BKN016
     FM221600 36007KT P6SM SCT006 BKN018
     FM221800 03010KT P6SM SCT030 SCT120
     FM222200 08012KT P6SM VCTS SCT060CB BKN140
     FM230200 35007KT P6SM SCT070 BKN120
     FM230500 29007KT P6SM SCT070 BKN120=

USA.gov is the U.S. government's official web portal to all federal, state and local government web resources and services.